createdAt,value
2019-02-20T00:01:14.057Z,5.90
2019-02-20T00:03:43.403Z,5.90
2019-02-20T00:06:11.976Z,6.10
2019-02-20T00:08:39.273Z,5.90
2019-02-20T00:11:08.804Z,6.00
2019-02-20T00:13:37.013Z,6.10
2019-02-20T00:16:04.748Z,6.10
2019-02-20T00:18:32.985Z,6.00
2019-02-20T00:21:03.754Z,6.00
2019-02-20T00:23:32.071Z,5.80
2019-02-20T00:26:00.864Z,5.70
2019-02-20T00:28:29.142Z,5.50
2019-02-20T00:30:57.971Z,5.60
2019-02-20T00:33:26.832Z,5.70
2019-02-20T00:35:55.380Z,5.70
2019-02-20T00:38:23.703Z,5.70
2019-02-20T00:40:51.969Z,5.60
2019-02-20T00:43:20.186Z,5.60
2019-02-20T00:46:06.328Z,5.40
2019-02-20T00:49:02.791Z,5.50
2019-02-20T00:51:45.391Z,5.50
2019-02-20T00:54:13.558Z,5.40
2019-02-20T00:56:43.074Z,5.50
2019-02-20T00:59:10.467Z,5.40
2019-02-20T01:01:39.444Z,5.50
2019-02-20T01:04:08.211Z,5.50
2019-02-20T01:06:36.601Z,5.60
2019-02-20T01:09:05.359Z,5.60
2019-02-20T01:11:33.037Z,5.60
2019-02-20T01:14:00.999Z,5.50
2019-02-20T01:16:29.387Z,5.60
2019-02-20T01:18:58.125Z,5.60
2019-02-20T01:21:26.262Z,5.40
2019-02-20T01:23:54.323Z,5.40
2019-02-20T01:26:21.986Z,5.40
2019-02-20T01:28:50.255Z,5.50
2019-02-20T01:31:17.674Z,5.30
2019-02-20T01:33:46.337Z,5.80
2019-02-20T01:36:14.791Z,5.10
2019-02-20T01:38:46.163Z,5.10
2019-02-20T01:41:14.205Z,5.00
2019-02-20T01:43:42.491Z,5.00
2019-02-20T01:46:11.986Z,5.10
2019-02-20T01:48:40.763Z,5.10
2019-02-20T01:51:09.527Z,5.10
2019-02-20T01:53:37.728Z,5.10
2019-02-20T01:56:05.387Z,5.20
2019-02-20T01:58:33.781Z,4.60
2019-02-20T02:01:01.860Z,4.60
2019-02-20T02:03:30.030Z,4.50
2019-02-20T02:05:57.702Z,4.60
2019-02-20T02:08:25.754Z,4.70
2019-02-20T02:10:53.096Z,4.70
2019-02-20T02:13:21.893Z,4.70
2019-02-20T02:15:50.662Z,4.70
2019-02-20T02:18:19.184Z,4.70
2019-02-20T02:20:48.323Z,4.70
2019-02-20T02:23:19.805Z,4.70
2019-02-20T02:28:15.269Z,4.80
2019-02-20T02:30:44.285Z,5.00
2019-02-20T02:33:13.063Z,5.00
2019-02-20T02:35:41.016Z,4.90
2019-02-20T02:38:09.074Z,5.00
2019-02-20T02:40:37.759Z,5.00
2019-02-20T02:43:06.141Z,5.00
2019-02-20T02:45:34.827Z,4.90
2019-02-20T02:48:02.520Z,4.90
2019-02-20T02:50:30.658Z,4.80
2019-02-20T02:52:58.630Z,4.90
2019-02-20T02:55:26.369Z,4.80
2019-02-20T02:57:54.543Z,4.90
2019-02-20T03:00:23.006Z,4.80
2019-02-20T03:02:53.444Z,4.80
2019-02-20T03:05:21.762Z,4.80
2019-02-20T03:07:49.435Z,4.80
2019-02-20T03:10:18.195Z,4.80
2019-02-20T03:12:47.005Z,4.80
2019-02-20T03:15:34.148Z,4.60
2019-02-20T03:18:01.682Z,4.60
2019-02-20T03:20:29.336Z,4.50
2019-02-20T03:22:57.418Z,4.30
2019-02-20T03:25:25.086Z,4.50
2019-02-20T03:27:55.909Z,4.60
2019-02-20T03:30:24.313Z,4.60
2019-02-20T03:32:55.191Z,4.60
2019-02-20T03:35:23.339Z,4.70
2019-02-20T03:37:54.262Z,4.80
2019-02-20T03:40:22.321Z,4.70
2019-02-20T03:42:50.103Z,4.70
2019-02-20T03:45:18.199Z,4.70
2019-02-20T03:47:46.335Z,4.70
2019-02-20T03:50:14.613Z,4.80
2019-02-20T03:52:42.924Z,4.80
2019-02-20T03:55:10.655Z,4.70
2019-02-20T03:57:39.063Z,4.60
2019-02-20T04:00:07.987Z,4.50
2019-02-20T04:05:04.138Z,4.10
2019-02-20T04:07:32.746Z,4.20
2019-02-20T04:10:00.963Z,4.00
2019-02-20T04:12:29.814Z,4.00
2019-02-20T04:14:57.915Z,3.80
2019-02-20T04:17:27.003Z,3.60
2019-02-20T04:19:54.619Z,3.40
2019-02-20T04:22:22.636Z,3.40
2019-02-20T04:24:50.069Z,3.50
2019-02-20T04:27:18.043Z,3.70
2019-02-20T04:29:46.461Z,3.80
2019-02-20T04:32:14.922Z,3.80
2019-02-20T04:34:43.507Z,3.60
2019-02-20T04:37:12.186Z,4.00
2019-02-20T04:39:40.257Z,4.20
2019-02-20T04:42:08.339Z,4.20
2019-02-20T04:44:36.407Z,4.20
2019-02-20T04:47:04.620Z,4.00
2019-02-20T04:49:33.411Z,4.00
2019-02-20T04:52:02.809Z,4.00
2019-02-20T04:54:30.839Z,4.20
2019-02-20T04:56:58.923Z,4.20
2019-02-20T04:59:29.068Z,4.30
2019-02-20T05:01:57.103Z,4.30
2019-02-20T05:04:27.515Z,4.40
2019-02-20T05:06:58.960Z,4.40
2019-02-20T05:09:27.163Z,4.50
2019-02-20T05:11:55.389Z,4.50
2019-02-20T05:14:24.012Z,4.40
2019-02-20T05:16:52.109Z,4.40
2019-02-20T05:19:21.337Z,4.50
2019-02-20T05:21:49.473Z,4.40
2019-02-20T05:24:24.479Z,4.40
2019-02-20T05:26:50.276Z,4.50
2019-02-20T05:29:17.991Z,4.50
2019-02-20T05:31:45.761Z,4.40
2019-02-20T05:34:13.836Z,4.40
2019-02-20T05:36:42.638Z,4.10
2019-02-20T05:39:10.801Z,4.10
2019-02-20T05:41:39.414Z,4.20
2019-02-20T05:44:08.871Z,4.10
2019-02-20T05:46:37.561Z,3.90
2019-02-20T05:49:06.444Z,3.70
2019-02-20T05:51:34.603Z,3.70
2019-02-20T05:54:02.835Z,3.50
2019-02-20T05:56:32.266Z,3.70
2019-02-20T05:58:59.784Z,4.00
2019-02-20T06:01:29.611Z,4.20
2019-02-20T06:03:57.477Z,4.30
2019-02-20T06:06:26.368Z,4.40
2019-02-20T06:08:55.656Z,4.40
2019-02-20T06:11:23.510Z,4.40
2019-02-20T06:13:53.117Z,4.40
2019-02-20T06:16:23.612Z,4.40
2019-02-20T06:18:52.300Z,4.40
2019-02-20T06:21:20.402Z,4.30
2019-02-20T06:23:48.630Z,4.30
2019-02-20T06:26:16.515Z,4.30
2019-02-20T06:28:44.932Z,4.40
2019-02-20T06:31:15.682Z,4.40
2019-02-20T06:33:44.239Z,4.40
2019-02-20T06:36:11.851Z,4.40
2019-02-20T06:38:42.069Z,4.40
2019-02-20T06:41:10.577Z,4.40
2019-02-20T06:43:39.133Z,4.50
2019-02-20T06:46:09.325Z,4.60
2019-02-20T06:48:37.683Z,4.50
2019-02-20T06:51:07.292Z,4.50
2019-02-20T06:53:38.109Z,4.50
2019-02-20T06:56:06.163Z,4.60
2019-02-20T06:58:34.752Z,4.60
2019-02-20T07:01:06.179Z,4.70
2019-02-20T07:03:37.094Z,4.60
2019-02-20T07:06:32.780Z,4.70
2019-02-20T07:09:45.230Z,4.70
2019-02-20T07:12:46.596Z,4.60
2019-02-20T07:15:59.390Z,4.60
2019-02-20T07:18:41.448Z,4.80
2019-02-20T07:21:44.992Z,4.80
2019-02-20T07:24:48.103Z,4.70
2019-02-20T07:27:35.553Z,4.70
2019-02-20T07:30:05.882Z,4.90
2019-02-20T07:32:34.286Z,5.10
2019-02-20T07:35:04.357Z,5.20
2019-02-20T07:37:33.428Z,5.30
2019-02-20T07:40:01.540Z,5.40
2019-02-20T07:42:30.899Z,5.50
2019-02-20T07:44:59.099Z,5.50
2019-02-20T07:47:27.205Z,5.50
2019-02-20T07:49:55.991Z,5.70
2019-02-20T07:52:24.069Z,5.80
2019-02-20T07:54:55.584Z,5.80
2019-02-20T07:59:52.838Z,6.10
2019-02-20T08:02:20.913Z,6.10
2019-02-20T08:04:49.163Z,6.00
2019-02-20T08:07:17.248Z,6.00
2019-02-20T08:09:46.070Z,6.20
2019-02-20T08:12:34.544Z,6.20
2019-02-20T08:15:04.876Z,6.30
2019-02-20T08:17:33.599Z,6.30
2019-02-20T08:20:03.092Z,6.40
2019-02-20T08:22:32.055Z,6.40
2019-02-20T08:25:00.928Z,6.40
2019-02-20T08:27:29.609Z,6.50
2019-02-20T08:29:59.328Z,6.60
2019-02-20T08:32:27.319Z,6.70
2019-02-20T08:34:56.363Z,6.80
2019-02-20T08:37:24.500Z,7.00
2019-02-20T08:39:52.850Z,7.30
2019-02-20T08:42:21.026Z,7.50
2019-02-20T08:44:49.699Z,7.70
2019-02-20T08:47:19.153Z,7.80
2019-02-20T08:49:49.851Z,8.30
2019-02-20T08:52:18.798Z,8.40
2019-02-20T08:54:47.612Z,8.40
2019-02-20T08:57:16.591Z,8.60
2019-02-20T08:59:44.699Z,7.40
2019-02-20T09:02:13.052Z,9.00
2019-02-20T09:04:41.153Z,9.60
2019-02-20T09:07:09.204Z,9.50
2019-02-20T09:09:38.103Z,9.90
2019-02-20T09:12:06.187Z,9.90
2019-02-20T09:14:34.198Z,10.50
2019-02-20T09:17:03.495Z,10.80
2019-02-20T09:19:32.691Z,10.60
2019-02-20T09:22:01.469Z,10.60
2019-02-20T09:24:30.349Z,10.30
2019-02-20T09:26:58.305Z,10.40
2019-02-20T09:29:26.856Z,10.60
2019-02-20T09:31:55.272Z,10.60
2019-02-20T09:34:24.127Z,10.70
2019-02-20T09:36:52.530Z,10.70
2019-02-20T09:39:38.567Z,10.80
2019-02-20T09:42:08.497Z,11.00
2019-02-20T09:44:47.561Z,11.10
2019-02-20T09:47:16.198Z,11.80
2019-02-20T09:49:44.011Z,12.40
2019-02-20T09:52:14.657Z,12.10
2019-02-20T09:54:43.025Z,12.20
2019-02-20T09:57:11.839Z,12.70
2019-02-20T09:59:42.754Z,12.70
2019-02-20T10:02:10.827Z,12.60
2019-02-20T10:04:39.896Z,12.60
2019-02-20T10:07:07.796Z,12.80
2019-02-20T10:09:36.752Z,14.20
2019-02-20T10:12:04.864Z,14.20
2019-02-20T10:14:33.276Z,13.90
2019-02-20T10:17:01.312Z,13.90
2019-02-20T10:19:29.419Z,15.70
2019-02-20T10:21:57.580Z,15.70
2019-02-20T10:24:26.339Z,16.00
2019-02-20T10:27:00.584Z,16.60
2019-02-20T10:29:25.112Z,16.90
2019-02-20T10:31:52.441Z,16.90
2019-02-20T10:34:20.880Z,17.40
2019-02-20T10:36:49.121Z,17.40
2019-02-20T10:39:17.241Z,17.90
2019-02-20T10:41:46.127Z,18.50
2019-02-20T10:44:14.097Z,18.60
2019-02-20T10:46:42.893Z,18.50
2019-02-20T10:49:11.079Z,18.30
2019-02-20T10:51:39.549Z,20.30
2019-02-20T10:54:07.699Z,20.30
2019-02-20T10:56:35.411Z,21.10
2019-02-20T10:59:03.855Z,20.40
2019-02-20T11:01:32.079Z,19.30
2019-02-20T11:04:00.242Z,19.30
2019-02-20T11:06:27.926Z,19.00
2019-02-20T11:08:56.307Z,16.90
2019-02-20T11:11:27.913Z,16.60
2019-02-20T11:16:24.459Z,18.20
2019-02-20T11:18:52.775Z,18.30
2019-02-20T11:21:21.009Z,20.10
2019-02-20T11:23:48.687Z,22.30
2019-02-20T11:26:18.952Z,22.60
2019-02-20T11:28:46.993Z,21.20
2019-02-20T11:31:15.351Z,20.70
2019-02-20T11:33:46.215Z,19.80
2019-02-20T11:36:14.373Z,19.80
2019-02-20T11:38:42.450Z,18.70
2019-02-20T11:41:13.464Z,18.80
2019-02-20T11:43:41.258Z,18.80
2019-02-20T11:46:09.002Z,18.30
2019-02-20T11:48:37.600Z,18.10
2019-02-20T11:51:06.758Z,18.50
2019-02-20T11:53:37.441Z,18.50
2019-02-20T11:56:05.904Z,18.70
2019-02-20T11:58:34.792Z,19.10
2019-02-20T12:01:03.574Z,19.10
2019-02-20T12:03:32.601Z,19.40
2019-02-20T12:06:01.981Z,18.40
2019-02-20T12:08:31.304Z,17.50
2019-02-20T12:11:00.459Z,18.40
2019-02-20T12:13:28.455Z,18.50
2019-02-20T12:15:59.529Z,19.20
2019-02-20T12:18:28.267Z,19.20
2019-02-20T12:20:56.672Z,19.70
2019-02-20T12:23:25.463Z,19.80
2019-02-20T12:25:54.400Z,20.20
2019-02-20T12:28:24.433Z,21.40
2019-02-20T12:30:52.539Z,20.10
2019-02-20T12:33:21.170Z,20.70
2019-02-20T12:35:49.218Z,21.70
2019-02-20T12:38:20.335Z,22.90
2019-02-20T12:40:48.726Z,22.50
2019-02-20T12:43:18.039Z,22.60
2019-02-20T12:45:46.712Z,22.20
2019-02-20T12:48:15.005Z,22.10
2019-02-20T12:50:43.267Z,22.40
2019-02-20T12:53:13.887Z,22.20
2019-02-20T12:55:42.295Z,21.10
2019-02-20T12:58:10.508Z,20.00
2019-02-20T13:00:38.826Z,19.30
2019-02-20T13:03:07.489Z,18.90
2019-02-20T13:05:35.544Z,18.70
2019-02-20T13:08:06.952Z,18.10
2019-02-20T13:10:36.589Z,18.30
2019-02-20T13:13:04.881Z,18.50
2019-02-20T13:15:33.281Z,18.70
2019-02-20T13:18:01.306Z,18.90
2019-02-20T13:20:30.196Z,18.70
2019-02-20T13:22:57.927Z,18.70
2019-02-20T13:25:26.100Z,19.20
2019-02-20T13:27:54.315Z,18.50
2019-02-20T13:30:21.923Z,18.00
2019-02-20T13:33:00.206Z,17.80
2019-02-20T13:35:29.720Z,17.80
2019-02-20T13:38:00.592Z,18.00
2019-02-20T13:40:30.219Z,18.00
2019-02-20T13:42:57.990Z,17.70
2019-02-20T13:45:26.581Z,17.70
2019-02-20T13:47:54.739Z,17.40
2019-02-20T13:50:23.220Z,17.20
2019-02-20T13:52:54.070Z,16.50
2019-02-20T13:55:22.708Z,16.40
2019-02-20T13:57:51.955Z,16.50
2019-02-20T14:00:20.008Z,16.10
2019-02-20T14:02:49.198Z,16.00
2019-02-20T14:05:18.153Z,15.40
2019-02-20T14:07:46.725Z,15.50
2019-02-20T14:10:14.073Z,15.40
2019-02-20T14:12:44.082Z,15.30
2019-02-20T14:15:13.486Z,15.40
2019-02-20T14:17:41.784Z,15.30
2019-02-20T14:20:10.532Z,15.20
2019-02-20T14:22:40.510Z,14.70
2019-02-20T14:25:08.249Z,14.40
2019-02-20T14:27:37.334Z,14.60
2019-02-20T14:30:05.299Z,14.60
2019-02-20T14:32:35.080Z,14.40
2019-02-20T14:35:03.126Z,14.40
2019-02-20T14:40:00.054Z,14.50
2019-02-20T14:42:27.888Z,14.50
2019-02-20T14:44:57.970Z,14.40
2019-02-20T14:47:26.786Z,14.20
2019-02-20T14:49:55.444Z,14.30
2019-02-20T14:52:23.711Z,14.40
2019-02-20T14:54:53.170Z,14.00
2019-02-20T14:57:21.854Z,14.10
2019-02-20T14:59:49.517Z,14.00
2019-02-20T15:02:17.821Z,13.80
2019-02-20T15:04:47.751Z,13.70
2019-02-20T15:07:16.003Z,13.70
2019-02-20T15:09:45.611Z,13.60
2019-02-20T15:12:14.607Z,13.70
2019-02-20T15:14:43.341Z,13.70
2019-02-20T15:17:11.664Z,13.60
2019-02-20T15:19:40.395Z,13.30
2019-02-20T15:22:09.909Z,13.20
2019-02-20T15:24:43.230Z,13.10
2019-02-20T15:27:12.135Z,13.00
2019-02-20T15:29:40.759Z,12.90
2019-02-20T15:32:08.804Z,12.90
2019-02-20T15:34:38.325Z,12.90
2019-02-20T15:37:06.876Z,12.80
2019-02-20T15:39:35.260Z,12.70
2019-02-20T15:42:03.106Z,12.60
2019-02-20T15:44:31.977Z,12.60
2019-02-20T15:47:00.663Z,12.60
2019-02-20T15:49:28.743Z,12.70
2019-02-20T15:51:56.889Z,12.70
2019-02-20T15:54:25.412Z,12.70
2019-02-20T15:56:53.719Z,12.80
2019-02-20T15:59:23.952Z,12.70
2019-02-20T16:01:52.081Z,12.60
2019-02-20T16:06:49.730Z,12.60
2019-02-20T16:09:19.441Z,12.50
2019-02-20T16:11:48.303Z,12.50
2019-02-20T16:14:16.946Z,12.30
2019-02-20T16:16:45.973Z,12.30
2019-02-20T16:19:13.644Z,12.40
2019-02-20T16:21:43.088Z,12.30
2019-02-20T16:26:41.273Z,12.30
2019-02-20T16:29:09.415Z,12.20
2019-02-20T16:31:38.893Z,12.10
2019-02-20T16:36:35.664Z,12.00
2019-02-20T16:39:05.236Z,11.80
2019-02-20T16:41:34.866Z,11.70
2019-02-20T16:44:03.145Z,11.80
2019-02-20T16:46:32.089Z,11.80
2019-02-20T16:49:01.041Z,11.80
2019-02-20T16:51:37.055Z,11.60
2019-02-20T16:54:06.512Z,11.60
2019-02-20T16:59:12.528Z,11.50
2019-02-20T17:01:50.978Z,11.40
2019-02-20T17:04:25.267Z,11.10
2019-02-20T17:07:04.434Z,11.30
2019-02-20T17:09:38.413Z,11.20
2019-02-20T17:12:09.045Z,11.20
2019-02-20T17:14:38.749Z,11.20
2019-02-20T17:17:06.900Z,11.10
2019-02-20T17:19:35.462Z,11.00
2019-02-20T17:22:04.180Z,11.00
2019-02-20T17:24:33.405Z,11.00
2019-02-20T17:27:01.419Z,11.00
2019-02-20T17:29:29.903Z,11.00
2019-02-20T17:32:06.476Z,11.00
2019-02-20T17:34:34.433Z,10.90
2019-02-20T17:37:02.519Z,10.70
2019-02-20T17:39:31.373Z,10.70
2019-02-20T17:42:01.427Z,10.60
2019-02-20T17:44:30.412Z,10.60
2019-02-20T17:46:58.913Z,10.60
2019-02-20T17:49:27.588Z,10.60
2019-02-20T17:51:55.578Z,10.60
2019-02-20T17:54:25.266Z,10.50
2019-02-20T17:56:53.429Z,10.30
2019-02-20T17:59:21.924Z,10.30
2019-02-20T18:01:50.234Z,10.20
2019-02-20T18:04:18.368Z,10.10
2019-02-20T18:06:46.511Z,10.00
2019-02-20T18:09:15.655Z,10.10
2019-02-20T18:11:43.853Z,10.10
2019-02-20T18:14:12.137Z,10.00
2019-02-20T18:16:40.625Z,10.00
2019-02-20T18:19:09.270Z,10.00
2019-02-20T18:24:06.246Z,10.00
2019-02-20T18:26:34.824Z,10.00
2019-02-20T18:29:03.201Z,9.90
2019-02-20T18:31:31.727Z,9.80
2019-02-20T18:34:00.521Z,9.70
2019-02-20T18:36:28.651Z,9.60
2019-02-20T18:39:02.331Z,9.60
2019-02-20T18:41:30.469Z,9.60
2019-02-20T18:44:00.035Z,9.60
2019-02-20T18:46:28.224Z,9.60
2019-02-20T18:48:56.408Z,9.50
2019-02-20T18:53:53.048Z,9.40
2019-02-20T18:56:21.957Z,9.30
2019-02-20T18:58:50.142Z,9.30
2019-02-20T19:01:18.690Z,9.40
2019-02-20T19:03:48.359Z,9.40
2019-02-20T19:06:30.905Z,9.30
2019-02-20T19:09:10.740Z,9.40
2019-02-20T19:12:20.879Z,9.20
2019-02-20T19:15:19.541Z,9.20
2019-02-20T19:18:35.079Z,9.10
2019-02-20T19:21:33.199Z,9.10
2019-02-20T19:24:41.947Z,9.10
2019-02-20T19:27:52.164Z,9.00
2019-02-20T19:31:21.966Z,9.00
2019-02-20T19:34:39.835Z,9.00
2019-02-20T19:37:15.301Z,8.90
2019-02-20T19:40:28.505Z,8.90
2019-02-20T19:43:26.993Z,8.90
2019-02-20T19:46:35.717Z,8.80
2019-02-20T19:49:34.486Z,8.80
2019-02-20T19:52:35.999Z,8.70
2019-02-20T19:55:21.788Z,8.70
2019-02-20T19:58:29.555Z,8.70
2019-02-20T20:01:44.770Z,8.70
2019-02-20T20:05:00.752Z,8.60
2019-02-20T20:07:55.520Z,8.50
2019-02-20T20:11:10.834Z,8.30
2019-02-20T20:13:49.514Z,8.30
2019-02-20T20:16:50.979Z,8.20
2019-02-20T20:20:08.907Z,8.20
2019-02-20T20:22:55.776Z,8.40
2019-02-20T20:26:11.637Z,8.30
2019-02-20T20:29:27.258Z,8.20
2019-02-20T20:32:35.104Z,8.10
2019-02-20T20:36:06.190Z,8.00
2019-02-20T20:39:00.135Z,8.00
2019-02-20T20:42:12.429Z,8.00
2019-02-20T20:45:13.823Z,8.00
2019-02-20T20:48:24.995Z,8.00
2019-02-20T20:51:31.418Z,7.90
2019-02-20T20:54:39.732Z,7.90
2019-02-20T20:57:22.182Z,7.80
2019-02-20T21:00:33.862Z,7.70
2019-02-20T21:03:06.492Z,7.70
2019-02-20T21:06:12.511Z,7.60
2019-02-20T21:08:58.411Z,7.60
2019-02-20T21:12:20.290Z,7.60
2019-02-20T21:15:10.656Z,7.70
2019-02-20T21:18:25.270Z,7.70
2019-02-20T21:21:15.902Z,7.60
2019-02-20T21:24:24.585Z,7.60
2019-02-20T21:27:18.614Z,7.60
2019-02-20T21:30:43.323Z,7.60
2019-02-20T21:33:55.044Z,7.60
2019-02-20T21:36:56.046Z,7.70
2019-02-20T21:39:35.404Z,7.70
2019-02-20T21:42:13.591Z,7.60
2019-02-20T21:45:03.991Z,7.60
2019-02-20T21:48:29.157Z,7.70
2019-02-20T21:51:37.912Z,7.70
2019-02-20T21:54:30.671Z,7.70
2019-02-20T21:57:40.384Z,7.60
2019-02-20T22:00:28.000Z,7.50
2019-02-20T22:03:40.468Z,7.60
2019-02-20T22:06:54.821Z,7.50
2019-02-20T22:09:45.882Z,7.40
2019-02-20T22:12:52.241Z,7.40
2019-02-20T22:16:07.891Z,7.30
2019-02-20T22:18:53.668Z,7.10
2019-02-20T22:22:02.807Z,7.10
2019-02-20T22:25:04.771Z,7.20
2019-02-20T22:28:20.263Z,7.30
2019-02-20T22:31:00.982Z,7.30
2019-02-20T22:33:40.798Z,7.40
2019-02-20T22:36:53.211Z,7.50
2019-02-20T22:40:05.442Z,7.50
2019-02-20T22:42:52.723Z,7.50
2019-02-20T22:45:52.972Z,7.50
2019-02-20T22:48:35.810Z,7.50
2019-02-20T22:51:32.297Z,7.50
2019-02-20T22:54:26.287Z,7.50
2019-02-20T22:57:32.549Z,7.50
2019-02-20T23:00:53.366Z,7.20
2019-02-20T23:04:10.727Z,6.90
2019-02-20T23:07:05.001Z,6.90
2019-02-20T23:09:58.464Z,7.00
2019-02-20T23:12:59.895Z,7.10
2019-02-20T23:15:28.604Z,7.20
2019-02-20T23:17:57.759Z,7.10
2019-02-20T23:20:26.668Z,7.00
2019-02-20T23:22:57.012Z,7.20
2019-02-20T23:25:24.861Z,7.10
2019-02-20T23:27:53.557Z,7.20
2019-02-20T23:30:21.719Z,7.10
2019-02-20T23:32:49.513Z,7.10
2019-02-20T23:35:17.553Z,7.10
2019-02-20T23:37:45.626Z,7.00
2019-02-20T23:40:13.308Z,7.00
2019-02-20T23:42:42.872Z,7.10
2019-02-20T23:45:11.389Z,7.00
2019-02-20T23:47:39.977Z,7.10
2019-02-20T23:50:09.159Z,7.10
2019-02-20T23:52:37.442Z,7.10
2019-02-20T23:55:05.522Z,7.00
2019-02-20T23:57:33.647Z,6.90
